WetterOnline ( http://www.wetteronline.de )

Wetter aktuell Braunschweig

Aktuelles Wetter: Wernigerode (240m)

6-stündlich | Neueste Meldungen
Ortszeit Temperatur Wetter
Mi, 24.01. 7:00 8.4° C bewölkt
Mi, 24.01. 1:00 6.8° C wolkig
Di, 23.01. 19:00 6.7° C wolkig
Di, 23.01. 13:00 7.6° C bedeckt
Di, 23.01. 7:00 5.1° C bedeckt
Di, 23.01. 1:00 5.4° C Sprühregen
Mo, 22.01. 19:00 4.0° C bewölkt
Mo, 22.01. 13:00 1.2° C leichter Schneefall
Ortszeit Temperatur Wetter
Mi, 24.01. 12:00 10.3° C bewölkt
Mi, 24.01. 11:50 10.3° C bewölkt
Mi, 24.01. 11:40 10.4° C bewölkt
Mi, 24.01. 11:30 10.4° C bewölkt
Mi, 24.01. 11:20 10.4° C bewölkt
Mi, 24.01. 11:10 10.3° C bewölkt
Mi, 24.01. 11:00 10.1° C bewölkt
Mi, 24.01. 10:30 9.6° C bewölkt
Mi, 24.01. 10:00 9.0° C bewölkt
Mi, 24.01. 9:30 8.6° C bewölkt
Mi, 24.01. 9:00 8.4° C wolkig
Ortszeit Relative Feuchte Sichtweite
Mi, 24.01. 7:00 83% 70 km
Mi, 24.01. 1:00 82% 70 km
Di, 23.01. 19:00 67% 70 km
Di, 23.01. 13:00 70% 30 km
Di, 23.01. 7:00 83% 40 km
Di, 23.01. 1:00 83% 23 km
Mo, 22.01. 19:00 88% 40 km
Mo, 22.01. 13:00 82% 9 km
Ortszeit Relative Feuchte Sichtweite
Mi, 24.01. 12:00 79% -
Mi, 24.01. 11:50 79% -
Mi, 24.01. 11:40 78% -
Mi, 24.01. 11:30 77% -
Mi, 24.01. 11:20 77% -
Mi, 24.01. 11:10 78% -
Mi, 24.01. 11:00 81% 70 km
Mi, 24.01. 10:30 82% 70 km
Mi, 24.01. 10:00 83% 70 km
Mi, 24.01. 9:30 86% 14 km
Mi, 24.01. 9:00 85% 70 km
Ortszeit Niederschlagsmenge Niederschlagsart
Mi, 24.01. 7:00 0.6 l/m2 in 12 Std. Sprühregen
Mi, 24.01. 1:00 0.6 l/m2 in 6 Std. Regen
Di, 23.01. 19:00 0.1 l/m2 in 12 Std. -
Di, 23.01. 13:00 0.1 l/m2 in 6 Std. Regen
Di, 23.01. 7:00 1 l/m2 in 12 Std. Regen
Di, 23.01. 1:00 0.6 l/m2 in 6 Std. Regen
Mo, 22.01. 19:00 2 l/m2 in 12 Std. Schnee, Regen
Mo, 22.01. 13:00 0.7 l/m2 in 6 Std. Schnee, Regen
Ortszeit Niederschlagsmenge Niederschlagsart
Mi, 24.01. 12:00 0.0 l/m2 in 1 Std. -
Mi, 24.01. 11:50 keine Meldung -
Mi, 24.01. 11:40 keine Meldung -
Mi, 24.01. 11:30 0.0 l/m2 in 1 Std. -
Mi, 24.01. 11:20 keine Meldung -
Mi, 24.01. 11:10 keine Meldung -
Mi, 24.01. 11:00 0.0 l/m2 in 1 Std. -
Mi, 24.01. 10:30 0.0 l/m2 in 1 Std. -
Mi, 24.01. 10:00 0.1 l/m2 in 1 Std. Sprühregen
Mi, 24.01. 9:30 0.1 l/m2 in 1 Std. Schnee
Mi, 24.01. 9:00 0.0 l/m2 in 1 Std. -
Ortszeit Stärke Spitze Richtung
km/h Bft. km/h Grad Sektor
Mi, 24.01. 7:00 7 2 54 200° S
Mi, 24.01. 1:00 25 4 65 200° S
Di, 23.01. 19:00 17 3 35 220° SW
Di, 23.01. 13:00 22 4 40 240° SW
Di, 23.01. 7:00 9 2 35 260° W
Di, 23.01. 1:00 17 3 41 280° W
Mo, 22.01. 19:00 14 3 36 280° W
Mo, 22.01. 13:00 18 3 47 190° S
Ortszeit Stärke Spitze Richtung
km/h Bft. km/h Grad Sektor
Mi, 24.01. 12:00 9 2 28 200° S
Mi, 24.01. 11:50 9 2 - 200° S
Mi, 24.01. 11:40 11 2 - 170° S
Mi, 24.01. 11:30 11 2 29 200° S
Mi, 24.01. 11:20 11 2 - 200° S
Mi, 24.01. 11:10 6 1 - 200° S
Mi, 24.01. 11:00 11 2 43 220° SW
Mi, 24.01. 10:30 14 3 43 200° S
Mi, 24.01. 10:00 14 3 43 200° S
Mi, 24.01. 9:30 18 3 43 200° S
Mi, 24.01. 9:00 13 3 35 200° S
Ortszeit Untergrenze Bedeckung Gattung
total tief tief mittel hoch
Mi, 24.01. 7:00 690 m 8/8 7/8 - - -
Mi, 24.01. 1:00 2700 m 7/8 2/8 - - -
Di, 23.01. 19:00 2100 m 8/8 2/8 - - -
Di, 23.01. 13:00 1500 m 8/8 8/8 - - -
Di, 23.01. 7:00 570 m 8/8 8/8 - - -
Di, 23.01. 1:00 450 m 8/8 8/8 - - -
Mo, 22.01. 19:00 300 m 7/8 7/8 - - -
Mo, 22.01. 13:00 30 m 7/8 7/8 - - -
Ortszeit Bedeckungsgrad in Achtel und Wolkenuntergrenze
Mi, 24.01. 12:00 7(510m) 7(9000m)
Mi, 24.01. 11:50 7(510m) 7(9000m)
Mi, 24.01. 11:40 6(540m) 7(660m) 7(9000m)
Mi, 24.01. 11:30 7(480m) 7(690m) 8(9000m)
Mi, 24.01. 11:20 7(480m) 7(690m) 8(9000m)
Mi, 24.01. 11:10 7(480m)
Mi, 24.01. 11:00 7(450m)
Mi, 24.01. 10:30 6(420m) 7(8700m) 7(9000m)
Mi, 24.01. 10:00 6(390m) 7(540m) 7(1500m)
Mi, 24.01. 9:30 7(420m) 7(1500m) 8(8400m)
Mi, 24.01. 9:00 4(420m) 7(7800m) 7(10500m)
Ortszeit Luftdruck NN (hPa) Tendenz (hPa in 3 Std.)
Mi, 24.01. 7:00 1019 + 0,3
Mi, 24.01. 1:00 1018 - 1,5
Di, 23.01. 19:00 1021 - 1,5
Di, 23.01. 13:00 1023 + 0,7
Di, 23.01. 7:00 1020 + 2,3
Di, 23.01. 1:00 1015 + 2,8
Mo, 22.01. 19:00 1010 + 2,6
Mo, 22.01. 13:00 1007 - 1,4
Ortszeit Luftdruck NN (hPa) Tendenz (hPa in 3 Std.)
Mi, 24.01. 12:00 1017 - 0,9
Mi, 24.01. 11:50 1017 keine Meldung
Mi, 24.01. 11:40 1017 keine Meldung
Mi, 24.01. 11:30 1018 - 0,8
Mi, 24.01. 11:20 1018 keine Meldung
Mi, 24.01. 11:10 1018 keine Meldung
Mi, 24.01. 11:00 1018 - 0,6
Mi, 24.01. 10:30 1018 - 0,6
Mi, 24.01. 10:00 1018 - 0,4
Mi, 24.01. 9:30 1019 + 0,6
Mi, 24.01. 9:00 1019 + 0,2
Ortszeit Schneehöhe (cm)
Mi, 24.01. 7:00 0
Mi, 24.01. 1:00 0
Di, 23.01. 19:00 0
Di, 23.01. 13:00 0
Di, 23.01. 7:00 0
Di, 23.01. 1:00 0
Mo, 22.01. 19:00 0
Mo, 22.01. 13:00 0
Ortszeit Schneehöhe (cm)
Mi, 24.01. 12:00 0
Mi, 24.01. 11:50 0
Mi, 24.01. 11:40 0
Mi, 24.01. 11:30 0
Mi, 24.01. 11:20 0
Mi, 24.01. 11:10 0
Mi, 24.01. 11:00 0
Mi, 24.01. 10:30 -
Mi, 24.01. 10:00 0
Mi, 24.01. 9:30 0
Mi, 24.01. 9:00 0
Link zu dieser Seite / Seite empfehlen

Das Wetter in ...